New York, New York
Traffic Map
Current Weather Conditions
New York, New York
Broken Clouds
Broken Clouds
63°
Feels Like: 63°
Wind Chill: 63° Ceiling: 12000
Heat Index: 63° Visibility: 9mi
Dew Point: 52° Wind: 9mph
Humidity: 67% Direction: 110° (ESE)
Pressure: 30.37in Gusts: 17mph
Raw Report DataKNYC 292151Z AUTO 11008G15KT 080V170 9SM FEW065 BKN120 17/11 A3037 RMK AO2 SLP274 T01720111
Traffic Incident Summary
Active as of:
Severity:
Category:
InformationThere was an issue retrieving the traffic information for this location. Please try a different location or try again shortly.
Advertisements
Track Severe Weather on mobile